Time;durP1;ratioP1;P1;durP2;ratioP2;P2;SDS_P1;SDS_P2;PMS_P1;PMS_P2;Temp;Humidity;BMP_temperature;BMP_pressure;BME280_temperature;BME280_humidity;BME280_pressure;Samples;Min_cycle;Max_cycle;Signal;HPM_P1;HPM_P2
2023/04/07 00:00:22;;;;;;;;;;;;;;;21.75;25.46;97606.38;5111124;28;1223;-75
2023/04/07 00:02:48;;;;;;;;;;;;;;;21.61;25.81;97607.66;5094007;28;1018;-75
2023/04/07 00:05:14;;;;;;;;;;;;;;;21.46;25.72;97618.66;5073652;28;1014;-75
2023/04/07 00:07:40;;;;;;;;;;;;;;;21.65;25.60;97618.84;5057162;28;981;-76
2023/04/07 00:10:06;;;;;;;;;;;;;;;22.03;25.25;97611.09;5057119;28;1036;-75
2023/04/07 00:12:32;;;;;;;;;;;;;;;22.24;24.92;97615.25;5057112;28;1989;-75
2023/04/07 00:14:57;;;;;;;;;;;;;;;22.30;24.98;97640.97;5073666;28;1288;-75
2023/04/07 00:17:23;;;;;;;;;;;;;;;21.99;24.98;97603.97;5057242;28;957;-75
2023/04/07 00:19:48;;;;;;;;;;;;;;;21.76;25.57;97608.78;5073658;28;1017;-75
2023/04/07 00:22:14;;;;;;;;;;;;;;;21.59;25.62;97601.66;5057125;28;994;-75
2023/04/07 00:24:39;;;;;;;;;;;;;;;21.97;25.45;97606.47;5056898;28;1098;-75
2023/04/07 00:27:05;;;;;;;;;;;;;;;22.03;25.10;97608.25;5073736;28;1195;-76
2023/04/07 00:29:31;;;;;;;;;;;;;;;22.23;24.75;97602.34;5056418;28;1017;-75
2023/04/07 00:31:56;;;;;;;;;;;;;;;22.05;24.79;97607.78;5073280;28;1910;-76
2023/04/07 00:34:22;;;;;;;;;;;;;;;21.81;25.38;97598.88;5056725;28;1151;-75
2023/04/07 00:36:51;;;;;;;;;;;;;;;21.57;25.51;97613.44;5036289;28;1194;-75
2023/04/07 00:39:17;;;;;;;;;;;;;;;21.60;25.47;97608.88;5013380;28;1386;-75
2023/04/07 00:41:44;;;;;;;;;;;;;;;21.90;25.05;97606.69;5013717;28;1502;-75
2023/04/07 00:44:09;;;;;;;;;;;;;;;22.16;24.68;97608.22;5013783;28;1070;-75
2023/04/07 00:46:35;;;;;;;;;;;;;;;22.06;24.79;97615.03;5032231;28;1055;-76
2023/04/07 00:49:00;;;;;;;;;;;;;;;22.00;24.89;97611.22;5053584;28;945;-75
2023/04/07 00:51:26;;;;;;;;;;;;;;;21.73;25.17;97615.34;5053417;28;1906;-75
2023/04/07 00:53:51;;;;;;;;;;;;;;;21.56;25.44;97622.38;5053447;28;988;-75
2023/04/07 00:56:17;;;;;;;;;;;;;;;22.02;25.11;97622.84;5036809;28;1460;-75
2023/04/07 00:58:43;;;;;;;;;;;;;;;22.22;24.60;97623.41;5036619;28;951;-76
2023/04/07 01:01:11;;;;;;;;;;;;;;;22.17;24.90;97621.16;5036947;28;980;-75
2023/04/07 01:03:57;;;;;;;;;;;;;;;21.94;24.91;97613.03;5036987;28;1079;-75
2023/04/07 01:06:23;;;;;;;;;;;;;;;21.83;24.83;97625.53;5036770;28;1176;-75
2023/04/07 01:08:54;;;;;;;;;;;;;;;21.81;24.75;97611.03;5013521;28;1409;-75
2023/04/07 01:11:40;;;;;;;;;;;;;;;21.93;25.00;97614.28;5015367;28;1960;-76
2023/04/07 01:14:06;;;;;;;;;;;;;;;22.16;24.83;97611.06;5033336;28;1117;-75
2023/04/07 01:16:41;;;;;;;;;;;;;;;22.17;24.55;97609.81;5033344;28;1257;-75
2023/04/07 01:19:15;;;;;;;;;;;;;;;21.85;24.96;97605.22;5033306;28;1697;-75
2023/04/07 01:21:44;;;;;;;;;;;;;;;21.60;25.00;97603.22;5032819;28;1194;-75
2023/04/07 01:24:09;;;;;;;;;;;;;;;21.37;25.51;97609.25;5033573;28;1090;-75
2023/04/07 01:26:35;;;;;;;;;;;;;;;22.12;24.50;97596.22;5033082;28;1176;-76
2023/04/07 01:29:07;;;;;;;;;;;;;;;22.15;24.36;97592.50;5013250;28;1365;-76
2023/04/07 01:31:33;;;;;;;;;;;;;;;22.08;24.79;97598.38;5013387;28;1922;-75
2023/04/07 01:33:59;;;;;;;;;;;;;;;22.03;24.60;97594.09;5013164;28;973;-75
2023/04/07 01:36:27;;;;;;;;;;;;;;;21.44;25.25;97600.53;5013416;28;1102;-76
2023/04/07 01:38:52;;;;;;;;;;;;;;;21.34;25.10;97588.28;5017941;28;1023;-75
2023/04/07 01:41:18;;;;;;;;;;;;;;;21.71;24.90;97589.53;5036409;28;1198;-76
2023/04/07 01:43:45;;;;;;;;;;;;;;;22.74;23.22;97590.75;5052885;28;926;-76
2023/04/07 01:46:11;;;;;;;;;;;;;;;22.27;24.05;97585.97;5036343;28;1168;-75
2023/04/07 01:48:36;;;;;;;;;;;;;;;22.03;24.27;97587.63;5035105;28;1038;-76
2023/04/07 01:51:03;;;;;;;;;;;;;;;21.68;24.85;97593.25;5019986;28;1313;-76
2023/04/07 01:53:29;;;;;;;;;;;;;;;21.50;24.62;97593.03;5019817;28;1910;-75
2023/04/07 01:55:54;;;;;;;;;;;;;;;21.81;24.50;97590.38;5020300;28;945;-76
2023/04/07 01:58:21;;;;;;;;;;;;;;;22.17;23.89;97587.16;5019974;28;1166;-75
2023/04/07 02:00:47;;;;;;;;;;;;;;;22.02;24.23;97586.03;5019541;28;1197;-75
2023/04/07 02:03:21;;;;;;;;;;;;;;;22.00;23.98;97582.88;5019287;28;1751;-75
2023/04/07 02:05:51;;;;;;;;;;;;;;;21.62;24.60;97586.59;5052754;28;977;-75
2023/04/07 02:08:17;;;;;;;;;;;;;;;21.65;24.28;97597.00;5036100;28;974;-75
2023/04/07 02:10:44;;;;;;;;;;;;;;;21.74;24.71;97591.44;5052324;28;1323;-75
2023/04/07 02:13:10;;;;;;;;;;;;;;;22.10;23.86;97591.03;5012720;28;1902;-75
2023/04/07 02:15:35;;;;;;;;;;;;;;;22.28;23.78;97598.91;5033069;28;1089;-75
2023/04/07 02:18:01;;;;;;;;;;;;;;;21.97;23.79;97589.47;5016275;28;1043;-76
2023/04/07 02:20:27;;;;;;;;;;;;;;;21.66;24.29;97598.59;5032557;28;1164;-76
2023/04/07 02:22:54;;;;;;;;;;;;;;;21.71;24.30;97600.84;5040549;28;1217;-74
2023/04/07 02:25:21;;;;;;;;;;;;;;;21.91;23.93;97589.22;5030756;28;1316;-74
2023/04/07 02:27:46;;;;;;;;;;;;;;;22.30;23.35;97599.22;5038675;28;1327;-74
2023/04/07 02:30:12;;;;;;;;;;;;;;;22.22;23.47;97600.72;5055860;28;1111;-74
2023/04/07 02:32:37;;;;;;;;;;;;;;;22.29;23.49;97594.81;5055646;28;1979;-74
2023/04/07 02:35:03;;;;;;;;;;;;;;;21.99;23.62;97592.63;5039153;28;947;-74
2023/04/07 02:37:29;;;;;;;;;;;;;;;21.69;24.03;97608.22;5055851;28;1382;-74
2023/04/07 02:39:54;;;;;;;;;;;;;;;21.82;23.75;97612.63;5039001;28;1380;-74
2023/04/07 02:42:20;;;;;;;;;;;;;;;21.61;24.33;97613.31;5022199;28;1429;-74
2023/04/07 02:44:47;;;;;;;;;;;;;;;21.73;23.86;97615.34;5038766;28;1120;-74
2023/04/07 02:47:13;;;;;;;;;;;;;;;21.62;23.98;97626.22;5038820;28;1126;-73
2023/04/07 02:49:38;;;;;;;;;;;;;;;21.42;24.43;97628.50;5055923;28;1076;-74
2023/04/07 02:52:05;;;;;;;;;;;;;;;21.79;24.00;97627.66;5057620;28;1980;-74
2023/04/07 02:54:30;;;;;;;;;;;;;;;22.02;23.62;97614.34;5089651;28;878;-74
2023/04/07 02:56:56;;;;;;;;;;;;;;;22.14;23.65;97624.91;5072994;28;1113;-75
2023/04/07 02:59:23;;;;;;;;;;;;;;;22.07;23.32;97625.13;5072360;28;970;-74
2023/04/07 03:01:49;;;;;;;;;;;;;;;21.98;23.78;97625.03;5089757;28;934;-75
2023/04/07 03:04:15;;;;;;;;;;;;;;;21.96;23.79;97633.19;5072976;28;1172;-74
2023/04/07 03:06:42;;;;;;;;;;;;;;;21.66;23.77;97643.91;5089600;28;1365;-74
2023/04/07 03:09:13;;;;;;;;;;;;;;;21.54;24.08;97633.34;5072550;28;1270;-75
2023/04/07 03:11:40;;;;;;;;;;;;;;;22.07;23.31;97627.94;5089324;28;1971;-74
2023/04/07 03:14:06;;;;;;;;;;;;;;;22.01;23.35;97635.44;5089170;28;1207;-73
2023/04/07 03:16:38;;;;;;;;;;;;;;;22.29;23.11;97628.84;5056239;28;1155;-74
2023/04/07 03:19:09;;;;;;;;;;;;;;;21.81;23.58;97636.53;5080780;28;1179;-73
2023/04/07 03:21:38;;;;;;;;;;;;;;;21.72;23.77;97642.06;5059718;28;1695;-74
2023/04/07 03:24:05;;;;;;;;;;;;;;;21.56;23.95;97639.38;5075676;28;951;-74
2023/04/07 03:26:31;;;;;;;;;;;;;;;22.21;23.04;97638.81;5074361;28;1123;-74
2023/04/07 03:28:57;;;;;;;;;;;;;;;22.12;23.16;97633.06;5091360;28;1049;-75
2023/04/07 03:31:23;;;;;;;;;;;;;;;22.27;23.17;97639.81;5057600;28;1909;-74
2023/04/07 03:33:51;;;;;;;;;;;;;;;22.03;23.36;97635.78;5057606;28;1449;-74
2023/04/07 03:36:17;;;;;;;;;;;;;;;21.68;23.49;97644.22;5082002;28;1086;-74
2023/04/07 03:38:45;;;;;;;;;;;;;;;21.56;23.81;97651.50;5073566;28;1237;-74
2023/04/07 03:41:11;;;;;;;;;;;;;;;22.02;23.24;97654.03;5062362;28;1663;-74
2023/04/07 03:43:36;;;;;;;;;;;;;;;22.35;22.99;97655.34;5055590;28;1870;-75
2023/04/07 03:46:02;;;;;;;;;;;;;;;22.06;23.33;97649.03;5073344;28;1607;-74
2023/04/07 03:48:28;;;;;;;;;;;;;;;22.27;22.75;97648.31;5077214;28;1089;-74
2023/04/07 03:51:06;;;;;;;;;;;;;;;21.62;23.61;97654.53;5077143;28;1086;-76
2023/04/07 03:53:32;;;;;;;;;;;;;;;21.45;24.01;97647.38;5053898;28;1905;-74
2023/04/07 03:56:02;;;;;;;;;;;;;;;21.61;23.67;97652.97;5037137;28;1317;-75
2023/04/07 03:58:43;;;;;;;;;;;;;;;21.92;23.27;97658.03;5037430;28;1098;-75
2023/04/07 04:01:14;;;;;;;;;;;;;;;22.22;22.68;97657.41;5035823;28;1629;-75
2023/04/07 04:03:42;;;;;;;;;;;;;;;22.12;22.90;97671.94;5031792;28;1361;-74
2023/04/07 04:06:28;;;;;;;;;;;;;;;22.00;22.95;97677.16;5023490;28;1260;-74
2023/04/07 04:09:02;;;;;;;;;;;;;;;21.79;23.36;97681.47;5021631;28;1711;-74
2023/04/07 04:11:31;;;;;;;;;;;;;;;21.75;23.20;97669.47;5036219;28;1926;-74
2023/04/07 04:14:01;;;;;;;;;;;;;;;21.88;23.18;97685.69;5009306;28;1366;-75
2023/04/07 04:16:27;;;;;;;;;;;;;;;22.22;22.76;97697.09;5033484;28;985;-74
2023/04/07 04:18:56;;;;;;;;;;;;;;;22.15;23.00;97691.66;5015256;28;1323;-74
2023/04/07 04:21:23;;;;;;;;;;;;;;;22.24;22.58;97691.78;5017254;28;1115;-74
2023/04/07 04:23:50;;;;;;;;;;;;;;;21.72;23.24;97692.25;5036658;28;1258;-73
2023/04/07 04:26:16;;;;;;;;;;;;;;;21.50;23.69;97697.78;5053502;28;1042;-74
2023/04/07 04:28:43;;;;;;;;;;;;;;;22.03;23.02;97698.13;5047833;28;1510;-74
2023/04/07 04:31:09;;;;;;;;;;;;;;;22.45;22.41;97704.41;5050953;28;1101;-74
2023/04/07 04:33:40;;;;;;;;;;;;;;;23.17;21.35;97702.66;5052681;28;1917;-74
2023/04/07 04:36:05;;;;;;;;;;;;;;;22.14;22.63;97698.59;5053729;28;1095;-74
2023/04/07 04:38:32;;;;;;;;;;;;;;;21.54;23.59;97709.78;5036518;28;1221;-74
2023/04/07 04:41:11;;;;;;;;;;;;;;;21.44;23.77;97720.19;5036583;28;1233;-74
2023/04/07 04:43:37;;;;;;;;;;;;;;;22.18;22.94;97719.09;5036464;28;1261;-74
2023/04/07 04:46:04;;;;;;;;;;;;;;;22.31;22.61;97722.69;5037808;28;1392;-74
2023/04/07 04:48:35;;;;;;;;;;;;;;;22.30;22.61;97715.44;5056316;28;1121;-74
2023/04/07 04:51:03;;;;;;;;;;;;;;;21.95;23.11;97719.44;5056506;28;1273;-74
2023/04/07 04:53:30;;;;;;;;;;;;;;;21.82;23.39;97720.25;5056290;28;1910;-74
2023/04/07 04:55:59;;;;;;;;;;;;;;;21.72;23.52;97727.03;5017283;28;1129;-75
2023/04/07 04:58:36;;;;;;;;;;;;;;;22.23;22.77;97729.88;5016871;28;1071;-74
2023/04/07 05:01:02;;;;;;;;;;;;;;;22.21;22.88;97732.34;5049738;28;1367;-74
2023/04/07 05:03:37;;;;;;;;;;;;;;;22.08;23.15;97729.50;5048402;28;1373;-74
2023/04/07 05:06:10;;;;;;;;;;;;;;;21.89;23.37;97729.75;5074077;28;1410;-74
2023/04/07 05:08:36;;;;;;;;;;;;;;;21.65;23.63;97730.06;5074744;28;1083;-74
2023/04/07 05:11:03;;;;;;;;;;;;;;;21.51;23.71;97739.03;5090601;28;1644;-74
2023/04/07 05:13:33;;;;;;;;;;;;;;;21.91;23.34;97727.25;5090441;28;1910;-74
2023/04/07 05:16:00;;;;;;;;;;;;;;;22.34;22.84;97738.00;5089863;28;1093;-74
2023/04/07 05:18:27;;;;;;;;;;;;;;;22.44;22.43;97748.19;5093011;28;1347;-74
2023/04/07 05:20:53;;;;;;;;;;;;;;;22.12;23.05;97742.78;5092220;28;1460;-73
2023/04/07 05:23:19;;;;;;;;;;;;;;;21.77;23.27;97756.81;5113773;28;1436;-74
2023/04/07 05:25:47;;;;;;;;;;;;;;;21.71;23.60;97753.75;5113538;28;951;-75
2023/04/07 05:28:13;;;;;;;;;;;;;;;21.61;23.53;97754.88;5113877;28;1446;-74
2023/04/07 05:30:38;;;;;;;;;;;;;;;21.64;23.67;97759.63;5080032;28;1241;-74
2023/04/07 05:33:04;;;;;;;;;;;;;;;21.75;23.35;97771.41;5096558;28;1925;-74
2023/04/07 05:35:44;;;;;;;;;;;;;;;22.14;22.87;97766.59;5080298;28;1421;-74
2023/04/07 05:38:11;;;;;;;;;;;;;;;22.53;22.55;97773.78;5063153;28;1188;-74
2023/04/07 05:40:38;;;;;;;;;;;;;;;22.21;22.89;97768.41;5079720;28;1308;-73
2023/04/07 05:43:06;;;;;;;;;;;;;;;21.72;23.58;97769.50;5079901;28;1085;-74
2023/04/07 05:45:32;;;;;;;;;;;;;;;21.50;23.70;97765.72;5096518;28;1093;-74
2023/04/07 05:47:58;;;;;;;;;;;;;;;21.86;23.50;97771.09;5039605;28;1067;-73
2023/04/07 05:50:32;;;;;;;;;;;;;;;22.63;22.51;97769.00;5044015;28;1483;-74
2023/04/07 05:53:02;;;;;;;;;;;;;;;22.43;22.45;97768.47;5038926;28;1973;-75
2023/04/07 05:55:27;;;;;;;;;;;;;;;22.09;22.91;97765.09;5039355;28;1500;-74
2023/04/07 05:57:54;;;;;;;;;;;;;;;21.64;23.41;97773.78;5039682;28;1452;-74
2023/04/07 06:00:22;;;;;;;;;;;;;;;21.77;23.25;97768.94;5039675;28;1278;-73
2023/04/07 06:02:58;;;;;;;;;;;;;;;21.57;23.86;97771.97;5040945;28;1271;-74
2023/04/07 06:05:25;;;;;;;;;;;;;;;22.06;23.23;97773.69;5039251;28;1130;-74
2023/04/07 06:07:53;;;;;;;;;;;;;;;22.27;23.01;97777.91;5025405;28;1459;-74
2023/04/07 06:10:20;;;;;;;;;;;;;;;22.22;22.83;97776.44;5011015;28;1281;-74
2023/04/07 06:12:45;;;;;;;;;;;;;;;21.91;23.37;97779.03;5018266;28;1975;-75
2023/04/07 06:15:11;;;;;;;;;;;;;;;21.96;22.92;97781.28;5036029;28;913;-73
2023/04/07 06:17:37;;;;;;;;;;;;;;;21.77;23.22;97780.28;5035842;28;1126;-74
2023/04/07 06:20:02;;;;;;;;;;;;;;;22.38;22.51;97777.56;5052478;28;1090;-74
2023/04/07 06:22:31;;;;;;;;;;;;;;;22.56;22.22;97783.44;5031851;28;1173;-74
2023/04/07 06:24:58;;;;;;;;;;;;;;;22.21;22.52;97777.69;5025037;28;1420;-75
2023/04/07 06:27:24;;;;;;;;;;;;;;;21.90;23.00;97790.81;5052197;28;968;-73
2023/04/07 06:29:50;;;;;;;;;;;;;;;21.88;22.99;97784.81;5035655;28;1177;-75
2023/04/07 06:32:15;;;;;;;;;;;;;;;21.91;22.90;97789.56;5052360;28;1906;-73
2023/04/07 06:34:41;;;;;;;;;;;;;;;22.22;22.51;97781.31;5051340;28;846;-74
2023/04/07 06:37:07;;;;;;;;;;;;;;;22.01;22.93;97794.09;5035358;28;1159;-74
2023/04/07 06:39:33;;;;;;;;;;;;;;;22.34;22.27;97789.81;5071638;28;1634;-74
2023/04/07 06:42:00;;;;;;;;;;;;;;;21.98;22.56;97809.19;5055377;28;1040;-74
2023/04/07 06:44:26;;;;;;;;;;;;;;;21.88;22.65;97811.09;5038686;28;951;-75
2023/04/07 06:46:52;;;;;;;;;;;;;;;21.64;23.14;97810.59;5039024;28;1073;-74
2023/04/07 06:49:18;;;;;;;;;;;;;;;21.86;22.92;97816.41;5038635;28;955;-74
2023/04/07 06:51:43;;;;;;;;;;;;;;;22.34;22.07;97814.53;5054934;28;1973;-74
2023/04/07 06:54:12;;;;;;;;;;;;;;;22.19;22.28;97802.88;5058309;28;1330;-74
2023/04/07 06:56:41;;;;;;;;;;;;;;;22.30;22.12;97811.03;5081856;28;1223;-74
2023/04/07 06:59:06;;;;;;;;;;;;;;;21.60;23.08;97815.56;5058052;28;985;-74
2023/04/07 07:01:32;;;;;;;;;;;;;;;21.83;22.69;97818.13;5041518;28;1133;-73
2023/04/07 07:03:59;;;;;;;;;;;;;;;21.83;22.71;97809.63;5074931;28;1099;-74
2023/04/07 07:06:25;;;;;;;;;;;;;;;22.41;22.00;97817.13;5042153;28;1274;-74
2023/04/07 07:08:51;;;;;;;;;;;;;;;22.26;22.02;97819.63;5040585;28;1355;-74
2023/04/07 07:11:16;;;;;;;;;;;;;;;22.17;22.10;97827.22;5059234;28;1043;-74
2023/04/07 07:13:43;;;;;;;;;;;;;;;21.70;22.59;97825.78;5054776;28;1977;-74
2023/04/07 07:16:09;;;;;;;;;;;;;;;21.61;22.87;97827.72;5054884;28;948;-74
2023/04/07 07:18:35;;;;;;;;;;;;;;;21.16;23.19;97832.16;5071115;28;1020;-74
2023/04/07 07:21:01;;;;;;;;;;;;;;;21.82;22.35;97827.88;5071140;28;986;-74
2023/04/07 07:23:26;;;;;;;;;;;;;;;22.04;22.25;97824.38;5053769;28;1465;-74
2023/04/07 07:25:52;;;;;;;;;;;;;;;22.28;21.99;97836.22;5037844;28;1429;-73
2023/04/07 07:28:18;;;;;;;;;;;;;;;22.18;22.04;97832.47;5037944;28;1535;-74
2023/04/07 07:30:44;;;;;;;;;;;;;;;21.54;22.81;97837.19;5099345;28;1046;-74
2023/04/07 07:33:10;;;;;;;;;;;;;;;21.53;22.74;97835.59;5076787;28;1979;-74
2023/04/07 07:35:36;;;;;;;;;;;;;;;22.03;22.08;97842.63;5109079;28;982;-74
2023/04/07 07:38:02;;;;;;;;;;;;;;;22.07;21.91;97848.94;5092538;28;919;-74
2023/04/07 07:40:28;;;;;;;;;;;;;;;21.75;22.36;97845.06;5073703;28;1339;-74
2023/04/07 07:42:53;;;;;;;;;;;;;;;21.88;22.43;97847.91;5089151;28;1013;-74
2023/04/07 07:45:19;;;;;;;;;;;;;;;22.03;22.14;97853.94;5055403;28;1314;-74
2023/04/07 07:47:45;;;;;;;;;;;;;;;21.96;22.16;97854.16;5055389;28;1209;-74
2023/04/07 07:50:10;;;;;;;;;;;;;;;22.19;21.72;97859.53;5088519;28;938;-74
2023/04/07 07:52:36;;;;;;;;;;;;;;;22.19;21.64;97851.03;5056414;28;1902;-74
2023/04/07 07:55:01;;;;;;;;;;;;;;;21.73;22.34;97853.22;5056308;28;1418;-74
2023/04/07 07:57:27;;;;;;;;;;;;;;;21.73;22.05;97849.59;5092236;28;1108;-74
2023/04/07 07:59:52;;;;;;;;;;;;;;;21.74;22.41;97854.78;5092097;28;1252;-74
2023/04/07 08:02:18;;;;;;;;;;;;;;;22.26;21.71;97850.81;5076025;28;917;-74
2023/04/07 08:04:44;;;;;;;;;;;;;;;22.15;21.62;97853.19;5074104;28;1140;-74
2023/04/07 08:07:10;;;;;;;;;;;;;;;21.87;21.98;97857.66;5109048;28;1213;-75
2023/04/07 08:09:36;;;;;;;;;;;;;;;21.85;21.97;97855.28;5075724;28;1101;-73
2023/04/07 08:12:02;;;;;;;;;;;;;;;21.89;21.96;97854.38;5106886;28;1973;-74
2023/04/07 08:14:29;;;;;;;;;;;;;;;21.98;21.97;97851.69;5090999;28;1001;-75
2023/04/07 08:16:55;;;;;;;;;;;;;;;22.28;21.42;97862.50;5107200;28;1081;-74
2023/04/07 08:19:20;;;;;;;;;;;;;;;22.34;21.44;97863.53;5107968;28;1672;-75
2023/04/07 08:21:46;;;;;;;;;;;;;;;22.48;21.49;97861.47;5069108;28;1316;-73
2023/04/07 08:24:11;;;;;;;;;;;;;;;22.13;21.77;97869.88;5056248;28;1376;-74
2023/04/07 08:26:37;;;;;;;;;;;;;;;21.83;22.26;97869.09;5073190;28;1078;-74
2023/04/07 08:29:02;;;;;;;;;;;;;;;21.56;22.47;97871.53;5073124;28;1043;-73
2023/04/07 08:31:28;;;;;;;;;;;;;;;22.11;21.77;97866.66;5073478;28;1010;-74
2023/04/07 08:33:56;;;;;;;;;;;;;;;22.30;21.61;97868.50;5072791;28;1906;-74
2023/04/07 08:36:26;;;;;;;;;;;;;;;22.14;21.76;97868.63;5040910;28;1322;-74
2023/04/07 08:38:52;;;;;;;;;;;;;;;22.00;21.87;97860.50;5056807;28;1155;-75
2023/04/07 08:41:22;;;;;;;;;;;;;;;21.82;22.09;97859.00;5039960;28;1102;-73
2023/04/07 08:43:48;;;;;;;;;;;;;;;21.81;21.99;97871.59;5056537;28;1012;-74
2023/04/07 08:46:13;;;;;;;;;;;;;;;22.41;21.51;97873.84;5056302;28;982;-75
2023/04/07 08:48:39;;;;;;;;;;;;;;;22.86;20.73;97867.91;5039743;28;978;-74
2023/04/07 08:51:05;;;;;;;;;;;;;;;22.25;21.40;97880.41;5040282;28;1491;-75
2023/04/07 08:53:34;;;;;;;;;;;;;;;22.11;21.80;97875.16;5072898;28;1980;-74
2023/04/07 08:56:00;;;;;;;;;;;;;;;21.75;22.08;97879.03;5054675;28;1020;-73
2023/04/07 08:58:26;;;;;;;;;;;;;;;21.61;22.35;97878.69;5058283;28;960;-74
2023/04/07 09:00:51;;;;;;;;;;;;;;;21.99;21.83;97878.75;5059455;28;938;-74
2023/04/07 09:03:17;;;;;;;;;;;;;;;22.16;21.73;97880.28;5057974;28;896;-73
2023/04/07 09:05:43;;;;;;;;;;;;;;;22.22;21.65;97891.84;5078807;28;1495;-75
2023/04/07 09:08:09;;;;;;;;;;;;;;;21.70;22.50;97885.25;5060608;28;1450;-74
2023/04/07 09:10:35;;;;;;;;;;;;;;;21.73;22.23;97887.19;5043384;28;1394;-74
2023/04/07 09:13:01;;;;;;;;;;;;;;;21.53;22.55;97895.06;5060166;28;1931;-74
2023/04/07 09:15:30;;;;;;;;;;;;;;;21.77;22.22;97893.56;5060235;28;1047;-74
2023/04/07 09:17:56;;;;;;;;;;;;;;;22.14;21.87;97894.13;5043380;28;989;-74
2023/04/07 09:20:22;;;;;;;;;;;;;;;22.28;21.57;97896.53;5039652;28;1066;-74
2023/04/07 09:22:49;;;;;;;;;;;;;;;22.05;22.03;97906.06;5032565;28;1442;-74
2023/04/07 09:25:18;;;;;;;;;;;;;;;21.68;22.50;97893.41;5023859;28;1114;-74
2023/04/07 09:27:59;;;;;;;;;;;;;;;21.63;22.48;97905.28;5022865;28;961;-74
2023/04/07 09:30:25;;;;;;;;;;;;;;;21.66;22.32;97904.41;5023285;28;1251;-74
2023/04/07 09:32:51;;;;;;;;;;;;;;;21.45;22.74;97888.00;4999838;28;1898;-74
2023/04/07 09:35:17;;;;;;;;;;;;;;;21.53;22.72;97897.88;5016374;28;906;-73
2023/04/07 09:37:43;;;;;;;;;;;;;;;22.06;21.93;97904.81;4976381;28;1441;-74
2023/04/07 09:40:09;;;;;;;;;;;;;;;22.20;21.88;97908.50;4993591;28;1206;-73
2023/04/07 09:42:36;;;;;;;;;;;;;;;22.18;22.09;97900.47;4993539;28;1227;-74
2023/04/07 09:45:02;;;;;;;;;;;;;;;22.01;21.98;97901.75;4977438;28;1058;-74
2023/04/07 09:47:28;;;;;;;;;;;;;;;21.54;22.64;97903.09;4980555;28;1129;-73
2023/04/07 09:49:54;;;;;;;;;;;;;;;21.30;22.89;97899.72;4938349;29;959;-74
2023/04/07 09:52:39;;;;;;;;;;;;;;;21.83;22.43;97905.13;4939131;29;1914;-74
2023/04/07 09:55:04;;;;;;;;;;;;;;;22.24;21.80;97904.34;4957578;29;941;-73
2023/04/07 09:57:30;;;;;;;;;;;;;;;22.25;21.97;97905.91;4941641;29;1005;-74
2023/04/07 09:59:56;;;;;;;;;;;;;;;21.76;22.33;97902.47;4938445;29;1022;-75
2023/04/07 10:02:21;;;;;;;;;;;;;;;21.76;22.38;97908.97;4906821;29;1328;-74
2023/04/07 10:04:47;;;;;;;;;;;;;;;21.54;22.74;97907.97;4959675;28;1016;-74
2023/04/07 10:07:12;;;;;;;;;;;;;;;22.07;22.08;97911.28;4975332;28;1397;-74
2023/04/07 10:09:38;;;;;;;;;;;;;;;21.95;22.28;97917.72;5011158;28;1548;-74
2023/04/07 10:12:04;;;;;;;;;;;;;;;22.04;22.40;97906.53;4995873;28;1979;-74
2023/04/07 10:14:30;;;;;;;;;;;;;;;22.06;22.16;97915.38;4979752;28;1499;-74
2023/04/07 10:16:56;;;;;;;;;;;;;;;21.57;22.80;97912.75;4960405;28;1720;-74
2023/04/07 10:19:22;;;;;;;;;;;;;;;21.57;22.97;97913.53;4960063;28;1002;-75
2023/04/07 10:21:48;;;;;;;;;;;;;;;21.66;23.10;97914.91;4974509;28;1217;-74
2023/04/07 10:24:32;;;;;;;;;;;;;;;22.16;22.31;97917.13;5013933;28;1392;-73
2023/04/07 10:27:03;;;;;;;;;;;;;;;22.23;22.10;97925.41;4999621;28;1003;-74
2023/04/07 10:29:28;;;;;;;;;;;;;;;21.93;22.39;97917.41;5032176;28;988;-75
2023/04/07 10:31:54;;;;;;;;;;;;;;;21.89;22.41;97916.69;5051031;28;1902;-74
2023/04/07 10:34:40;;;;;;;;;;;;;;;21.73;22.84;97914.72;5058409;28;1001;-74
2023/04/07 10:37:12;;;;;;;;;;;;;;;21.71;22.71;97923.69;4995211;28;1571;-74
2023/04/07 10:39:38;;;;;;;;;;;;;;;21.84;22.80;97921.66;4996225;28;991;-74
2023/04/07 10:42:04;;;;;;;;;;;;;;;22.05;22.47;97910.94;4963380;28;1125;-74
2023/04/07 10:44:50;;;;;;;;;;;;;;;22.22;22.23;97920.19;4979716;28;950;-74
2023/04/07 10:47:16;;;;;;;;;;;;;;;22.27;21.95;97920.41;4995241;28;1028;-74
2023/04/07 10:50:01;;;;;;;;;;;;;;;21.65;22.84;97916.94;5018485;28;1064;-74
2023/04/07 10:52:27;;;;;;;;;;;;;;;21.64;22.82;97917.41;5017600;28;1906;-74
2023/04/07 10:55:11;;;;;;;;;;;;;;;21.73;22.85;97921.19;5018302;28;1073;-74
2023/04/07 10:57:36;;;;;;;;;;;;;;;22.19;22.43;97913.38;5018677;28;1103;-74
2023/04/07 11:00:08;;;;;;;;;;;;;;;22.23;22.25;97922.59;5001891;28;1027;-73
2023/04/07 11:02:34;;;;;;;;;;;;;;;21.97;22.63;97918.09;5018373;28;1155;-74
2023/04/07 11:05:00;;;;;;;;;;;;;;;21.36;23.29;97922.63;4961967;28;1061;-74
2023/04/07 11:07:44;;;;;;;;;;;;;;;21.54;23.05;97922.13;4963179;28;1342;-73
2023/04/07 11:10:11;;;;;;;;;;;;;;;21.49;23.16;97917.00;4939842;29;1894;-74
2023/04/07 11:12:36;;;;;;;;;;;;;;;22.10;22.60;97911.22;4940440;29;1965;-74
2023/04/07 11:15:18;;;;;;;;;;;;;;;22.06;22.56;97919.00;5022759;28;1000;-73
2023/04/07 11:17:43;;;;;;;;;;;;;;;21.98;22.55;97919.66;4998620;28;991;-74
2023/04/07 11:20:09;;;;;;;;;;;;;;;21.69;23.33;97926.16;4997982;28;994;-75
2023/04/07 11:22:36;;;;;;;;;;;;;;;21.45;23.34;97921.97;4998524;28;1122;-74
2023/04/07 11:25:01;;;;;;;;;;;;;;;21.73;23.05;97909.84;5014730;28;1415;-74
2023/04/07 11:27:28;;;;;;;;;;;;;;;22.11;22.66;97923.34;5030784;28;940;-74
2023/04/07 11:29:54;;;;;;;;;;;;;;;22.08;22.75;97918.56;4998378;28;953;-73
2023/04/07 11:32:28;;;;;;;;;;;;;;;22.06;22.59;97921.03;5030611;28;1906;-73
2023/04/07 11:34:54;;;;;;;;;;;;;;;21.61;23.34;97923.97;5030128;28;1089;-74
2023/04/07 11:37:23;;;;;;;;;;;;;;;21.52;23.56;97922.56;5014429;28;1119;-74
2023/04/07 11:39:55;;;;;;;;;;;;;;;21.99;23.07;97926.91;5030028;28;1472;-74
2023/04/07 11:42:30;;;;;;;;;;;;;;;22.16;22.75;97931.28;5022940;28;903;-74
2023/04/07 11:44:56;;;;;;;;;;;;;;;21.91;22.78;97922.69;5088786;28;876;-73
2023/04/07 11:47:22;;;;;;;;;;;;;;;21.71;23.19;97911.53;5088779;28;909;-73
2023/04/07 11:49:47;;;;;;;;;;;;;;;21.57;23.43;97924.88;5076565;28;1661;-74
2023/04/07 11:52:13;;;;;;;;;;;;;;;21.51;23.49;97914.53;5056773;28;1905;-74
2023/04/07 11:54:41;;;;;;;;;;;;;;;22.16;22.80;97931.28;5075565;28;1399;-75
2023/04/07 11:57:09;;;;;;;;;;;;;;;22.30;22.67;97924.41;5077342;28;952;-74
2023/04/07 11:59:34;;;;;;;;;;;;;;;22.17;22.89;97926.41;5057155;28;938;-74
2023/04/07 12:02:00;;;;;;;;;;;;;;;21.83;23.14;97924.94;5055666;28;1477;-74
2023/04/07 12:04:26;;;;;;;;;;;;;;;21.59;23.53;97927.22;5073306;28;1318;-74
2023/04/07 12:06:51;;;;;;;;;;;;;;;21.35;23.97;97929.53;5073621;28;1186;-74
2023/04/07 12:09:31;;;;;;;;;;;;;;;21.61;23.47;97913.44;5073181;28;1046;-74
2023/04/07 12:11:57;;;;;;;;;;;;;;;22.31;22.77;97923.94;5056131;28;1914;-74
2023/04/07 12:14:23;;;;;;;;;;;;;;;22.20;22.97;97919.84;5056823;28;1026;-74
2023/04/07 12:16:55;;;;;;;;;;;;;;;22.16;23.11;97917.13;5056874;28;959;-74
2023/04/07 12:19:22;;;;;;;;;;;;;;;21.54;23.81;97922.91;5056588;28;1186;-74
2023/04/07 12:21:47;;;;;;;;;;;;;;;21.66;23.59;97915.72;5056878;28;931;-74
2023/04/07 12:24:13;;;;;;;;;;;;;;;21.67;23.53;97917.31;5056708;28;1105;-74
2023/04/07 12:26:38;;;;;;;;;;;;;;;22.10;23.17;97925.38;5055205;28;1361;-74
2023/04/07 12:29:04;;;;;;;;;;;;;;;22.26;22.82;97918.84;5072486;28;1471;-73
2023/04/07 12:31:31;;;;;;;;;;;;;;;22.19;22.81;97907.72;5072298;28;978;-73
2023/04/07 12:33:57;;;;;;;;;;;;;;;21.72;23.71;97913.94;5073069;28;1902;-73
2023/04/07 12:36:23;;;;;;;;;;;;;;;21.42;24.22;97918.00;5070178;28;965;-74
2023/04/07 12:38:50;;;;;;;;;;;;;;;21.58;23.69;97920.00;5087964;28;961;-73
2023/04/07 12:41:16;;;;;;;;;;;;;;;22.25;23.10;97933.47;5055548;28;972;-74
2023/04/07 12:43:41;;;;;;;;;;;;;;;22.44;22.74;97923.19;5066127;28;1402;-74
2023/04/07 12:46:07;;;;;;;;;;;;;;;22.15;23.05;97918.38;5090811;28;1458;-74
2023/04/07 12:48:33;;;;;;;;;;;;;;;21.71;23.83;97918.00;5054232;28;1101;-73
2023/04/07 12:50:58;;;;;;;;;;;;;;;21.65;23.60;97914.13;5087850;28;1551;-74
2023/04/07 12:53:24;;;;;;;;;;;;;;;21.55;23.69;97909.53;5087383;28;1983;-75
2023/04/07 12:55:50;;;;;;;;;;;;;;;21.88;23.75;97917.94;5070549;28;874;-73
2023/04/07 12:58:16;;;;;;;;;;;;;;;22.09;23.07;97925.81;5070793;28;1006;-73
2023/04/07 13:00:42;;;;;;;;;;;;;;;22.00;23.54;97922.84;5087350;28;970;-74